createdAt,value
2018-12-20T00:00:24.640Z,0
2018-12-20T00:01:24.457Z,0
2018-12-20T00:02:24.542Z,0
2018-12-20T00:03:24.442Z,0
2018-12-20T00:04:24.486Z,0
2018-12-20T00:05:24.195Z,0
2018-12-20T00:06:24.436Z,0
2018-12-20T00:07:24.593Z,0
2018-12-20T00:08:24.667Z,0
2018-12-20T00:09:24.314Z,0
2018-12-20T00:10:24.389Z,0
2018-12-20T00:11:24.377Z,0
2018-12-20T00:12:24.382Z,0
2018-12-20T00:13:24.242Z,0
2018-12-20T00:14:29.817Z,0
2018-12-20T00:15:24.391Z,0
2018-12-20T00:16:24.371Z,0
2018-12-20T00:17:24.230Z,0
2018-12-20T00:18:24.111Z,0
2018-12-20T00:19:23.795Z,0
2018-12-20T00:20:24.202Z,0
2018-12-20T00:21:24.220Z,0
2018-12-20T00:22:24.152Z,0
2018-12-20T00:23:24.565Z,0
2018-12-20T00:24:24.098Z,0
2018-12-20T00:25:23.766Z,0
2018-12-20T00:26:24.254Z,0
2018-12-20T00:27:24.120Z,0
2018-12-20T00:28:23.656Z,0
2018-12-20T00:29:24.192Z,0
2018-12-20T00:30:24.013Z,0
2018-12-20T00:31:23.966Z,0
2018-12-20T00:32:24.055Z,0
2018-12-20T00:33:24.359Z,0
2018-12-20T00:34:23.932Z,0
2018-12-20T00:35:24.038Z,0
2018-12-20T00:36:23.537Z,0
2018-12-20T00:37:24.167Z,0
2018-12-20T00:38:24.009Z,0
2018-12-20T00:39:23.970Z,0
2018-12-20T00:40:23.832Z,0
2018-12-20T00:41:24.074Z,0
2018-12-20T00:42:23.689Z,0
2018-12-20T00:43:23.842Z,0
2018-12-20T00:44:23.752Z,0
2018-12-20T00:45:23.741Z,0
2018-12-20T00:46:23.638Z,0
2018-12-20T00:47:23.683Z,0
2018-12-20T00:48:23.674Z,0
2018-12-20T00:49:23.781Z,0
2018-12-20T00:50:23.505Z,0
2018-12-20T00:51:23.188Z,0
2018-12-20T00:52:23.560Z,0
2018-12-20T00:53:23.712Z,0
2018-12-20T00:54:23.687Z,0
2018-12-20T00:55:23.617Z,0
2018-12-20T00:56:23.657Z,0
2018-12-20T00:57:23.278Z,0
2018-12-20T00:58:23.750Z,0
2018-12-20T00:59:23.290Z,0
2018-12-20T01:00:23.454Z,0
2018-12-20T01:01:23.750Z,0
2018-12-20T01:02:23.437Z,0
2018-12-20T01:03:23.521Z,0
2018-12-20T01:04:23.157Z,0
2018-12-20T01:05:23.079Z,0
2018-12-20T01:06:23.498Z,0
2018-12-20T01:07:23.634Z,0
2018-12-20T01:08:23.398Z,0
2018-12-20T01:09:23.581Z,0
2018-12-20T01:10:23.451Z,0
2018-12-20T01:11:23.504Z,0
2018-12-20T01:12:22.870Z,0
2018-12-20T01:13:23.164Z,0
2018-12-20T01:14:22.586Z,0
2018-12-20T01:15:23.197Z,0
2018-12-20T01:16:22.919Z,0
2018-12-20T01:17:23.282Z,0
2018-12-20T01:18:22.967Z,0
2018-12-20T01:19:23.377Z,0
2018-12-20T01:20:23.102Z,0
2018-12-20T01:21:23.291Z,0
2018-12-20T01:22:23.077Z,0
2018-12-20T01:23:23.367Z,0
2018-12-20T01:24:23.187Z,0
2018-12-20T01:25:22.795Z,0
2018-12-20T01:26:23.048Z,0
2018-12-20T01:27:22.886Z,0
2018-12-20T01:28:23.192Z,0
2018-12-20T01:29:22.642Z,0
2018-12-20T01:30:22.952Z,0
2018-12-20T01:31:23.280Z,0
2018-12-20T01:32:23.035Z,0
2018-12-20T01:33:22.903Z,0
2018-12-20T01:34:23.130Z,0
2018-12-20T01:35:23.102Z,0
2018-12-20T01:36:22.867Z,0
2018-12-20T01:37:23.115Z,0
2018-12-20T01:38:22.683Z,0
2018-12-20T01:39:22.823Z,0
2018-12-20T01:40:23.172Z,0
2018-12-20T01:41:22.932Z,0
2018-12-20T01:42:23.251Z,0
2018-12-20T01:43:23.130Z,0
2018-12-20T01:44:23.131Z,0
2018-12-20T01:45:23.081Z,0
2018-12-20T01:46:22.964Z,0
2018-12-20T01:47:22.790Z,0
2018-12-20T01:48:22.983Z,0
2018-12-20T01:49:22.750Z,0
2018-12-20T01:50:22.915Z,0
2018-12-20T01:51:22.817Z,0
2018-12-20T01:52:22.649Z,0
2018-12-20T01:53:22.250Z,0
2018-12-20T01:54:22.231Z,0
2018-12-20T01:55:22.513Z,0
2018-12-20T01:56:22.595Z,0
2018-12-20T01:57:22.839Z,0
2018-12-20T01:58:22.450Z,0
2018-12-20T01:59:22.731Z,0
2018-12-20T02:00:22.786Z,0
2018-12-20T02:01:22.579Z,0
2018-12-20T02:02:22.644Z,0
2018-12-20T02:03:22.601Z,0
2018-12-20T02:04:22.108Z,0
2018-12-20T02:05:22.552Z,0
2018-12-20T02:06:22.533Z,0
2018-12-20T02:07:22.411Z,0
2018-12-20T02:08:22.181Z,0
2018-12-20T02:09:22.271Z,0
2018-12-20T02:10:22.357Z,0
2018-12-20T02:11:22.186Z,0
2018-12-20T02:12:22.280Z,0
2018-12-20T02:13:22.585Z,0
2018-12-20T02:14:21.852Z,0
2018-12-20T02:15:21.895Z,0
2018-12-20T02:16:22.519Z,0
2018-12-20T02:17:22.076Z,0
2018-12-20T02:18:22.402Z,0
2018-12-20T02:19:22.338Z,0
2018-12-20T02:20:21.738Z,0
2018-12-20T02:21:22.368Z,0
2018-12-20T02:22:22.083Z,0
2018-12-20T02:23:22.132Z,0
2018-12-20T02:24:21.969Z,0
2018-12-20T02:25:21.944Z,0
2018-12-20T02:26:21.824Z,0
2018-12-20T02:27:22.060Z,0
2018-12-20T02:28:21.829Z,0
2018-12-20T02:29:21.839Z,0
2018-12-20T02:30:21.751Z,0
2018-12-20T02:31:21.807Z,0
2018-12-20T02:32:22.497Z,0
2018-12-20T02:33:21.516Z,0
2018-12-20T02:34:21.612Z,0
2018-12-20T02:35:22.082Z,0
2018-12-20T02:36:21.926Z,0
2018-12-20T02:37:21.971Z,0
2018-12-20T02:38:22.032Z,0
2018-12-20T02:39:22.002Z,0
2018-12-20T02:40:22.300Z,0
2018-12-20T02:41:21.899Z,0
2018-12-20T02:42:21.886Z,0
2018-12-20T02:43:21.630Z,0
2018-12-20T02:44:21.909Z,0
2018-12-20T02:45:21.804Z,0
2018-12-20T02:46:22.129Z,0
2018-12-20T02:47:21.681Z,0
2018-12-20T02:48:22.171Z,0
2018-12-20T02:49:21.749Z,0
2018-12-20T02:50:21.576Z,0
2018-12-20T02:51:21.733Z,0
2018-12-20T02:52:21.900Z,0
2018-12-20T02:53:21.615Z,0
2018-12-20T02:54:21.461Z,0
2018-12-20T02:55:21.445Z,0
2018-12-20T02:56:21.477Z,0
2018-12-20T02:57:21.534Z,0
2018-12-20T02:58:22.080Z,0
2018-12-20T02:59:21.804Z,0
2018-12-20T03:00:21.493Z,0
2018-12-20T03:01:21.258Z,0
2018-12-20T03:02:21.697Z,0
2018-12-20T03:03:21.286Z,0
2018-12-20T03:04:21.376Z,0
2018-12-20T03:05:21.640Z,0
2018-12-20T03:06:21.546Z,0
2018-12-20T03:07:21.522Z,0
2018-12-20T03:08:21.391Z,0
2018-12-20T03:09:21.575Z,0
2018-12-20T03:10:21.195Z,0
2018-12-20T03:11:21.460Z,0
2018-12-20T03:12:21.153Z,0
2018-12-20T03:13:21.673Z,0
2018-12-20T03:14:21.630Z,0
2018-12-20T03:15:29.916Z,0
2018-12-20T03:16:21.610Z,0
2018-12-20T03:17:20.949Z,0
2018-12-20T03:18:21.046Z,0
2018-12-20T03:19:21.098Z,0
2018-12-20T03:20:20.540Z,0
2018-12-20T03:21:21.082Z,0
2018-12-20T03:22:21.664Z,0
2018-12-20T03:23:21.541Z,0
2018-12-20T03:24:21.795Z,0
2018-12-20T03:25:20.765Z,0
2018-12-20T03:26:20.816Z,0
2018-12-20T03:27:21.090Z,0
2018-12-20T03:28:20.789Z,0
2018-12-20T03:29:20.385Z,0
2018-12-20T03:30:21.236Z,0
2018-12-20T03:31:21.263Z,0
2018-12-20T03:32:20.453Z,0
2018-12-20T03:33:20.939Z,0
2018-12-20T03:34:21.202Z,0
2018-12-20T03:35:20.934Z,0
2018-12-20T03:36:20.707Z,0
2018-12-20T03:37:20.749Z,0
2018-12-20T03:38:20.824Z,0
2018-12-20T03:39:21.059Z,0
2018-12-20T03:40:20.785Z,0
2018-12-20T03:41:20.972Z,0
2018-12-20T03:42:20.807Z,0
2018-12-20T03:43:20.926Z,0
2018-12-20T03:44:20.521Z,0
2018-12-20T03:45:30.850Z,0
2018-12-20T03:46:20.679Z,0
2018-12-20T03:47:20.471Z,0
2018-12-20T03:48:20.206Z,0
2018-12-20T03:49:20.736Z,0
2018-12-20T03:50:20.379Z,0
2018-12-20T03:51:20.628Z,0
2018-12-20T03:52:20.680Z,0
2018-12-20T03:53:21.103Z,0
2018-12-20T03:54:20.123Z,0
2018-12-20T03:55:21.061Z,0
2018-12-20T03:56:20.735Z,0
2018-12-20T03:57:20.698Z,0
2018-12-20T03:58:20.348Z,0
2018-12-20T03:59:20.709Z,0
2018-12-20T04:00:20.196Z,0
2018-12-20T04:01:20.245Z,0
2018-12-20T04:02:20.805Z,0
2018-12-20T04:03:20.510Z,0
2018-12-20T04:04:20.676Z,0
2018-12-20T04:05:20.497Z,0
2018-12-20T04:06:20.264Z,0
2018-12-20T04:07:20.407Z,0
2018-12-20T04:08:20.374Z,0
2018-12-20T04:09:20.374Z,0
2018-12-20T04:10:20.425Z,0
2018-12-20T04:11:19.943Z,0
2018-12-20T04:12:20.006Z,0
2018-12-20T04:13:20.447Z,0
2018-12-20T04:14:19.869Z,0
2018-12-20T04:15:20.353Z,0
2018-12-20T04:16:19.944Z,0
2018-12-20T04:17:19.847Z,0
2018-12-20T04:18:20.038Z,0
2018-12-20T04:19:20.079Z,0
2018-12-20T04:20:20.352Z,0
2018-12-20T04:21:19.867Z,0
2018-12-20T04:22:19.791Z,0
2018-12-20T04:23:19.485Z,0
2018-12-20T04:24:19.814Z,0
2018-12-20T04:25:20.101Z,0
2018-12-20T04:26:20.398Z,0
2018-12-20T04:27:19.981Z,0
2018-12-20T04:28:19.618Z,0
2018-12-20T04:29:19.955Z,0
2018-12-20T04:30:19.877Z,0
2018-12-20T04:31:20.304Z,0
2018-12-20T04:32:19.507Z,0
2018-12-20T04:33:20.134Z,0
2018-12-20T04:34:19.851Z,0
2018-12-20T04:35:19.619Z,0
2018-12-20T04:36:19.471Z,0
2018-12-20T04:37:20.210Z,0
2018-12-20T04:38:19.388Z,0
2018-12-20T04:39:18.915Z,0
2018-12-20T04:40:19.664Z,0
2018-12-20T04:41:19.689Z,0
2018-12-20T04:42:19.444Z,0
2018-12-20T04:43:19.433Z,0
2018-12-20T04:44:19.758Z,0
2018-12-20T04:45:19.693Z,0
2018-12-20T04:46:19.751Z,0
2018-12-20T04:47:19.687Z,0
2018-12-20T04:48:20.176Z,0
2018-12-20T04:49:19.426Z,0
2018-12-20T04:50:19.564Z,0
2018-12-20T04:51:19.823Z,0
2018-12-20T04:52:19.616Z,0
2018-12-20T04:53:19.221Z,0
2018-12-20T04:54:19.122Z,0
2018-12-20T04:55:19.497Z,0
2018-12-20T04:56:19.368Z,0
2018-12-20T04:57:19.227Z,0
2018-12-20T04:58:19.395Z,0
2018-12-20T04:59:19.139Z,0
2018-12-20T05:00:19.258Z,0
2018-12-20T05:01:18.986Z,0
2018-12-20T05:02:19.468Z,0
2018-12-20T05:03:19.224Z,0
2018-12-20T05:04:19.192Z,0
2018-12-20T05:05:19.372Z,0
2018-12-20T05:06:19.062Z,0
2018-12-20T05:07:18.772Z,0
2018-12-20T05:08:19.774Z,0
2018-12-20T05:09:18.767Z,0
2018-12-20T05:10:18.986Z,0
2018-12-20T05:11:18.912Z,0
2018-12-20T05:12:19.068Z,0
2018-12-20T05:13:18.958Z,0
2018-12-20T05:14:19.548Z,0
2018-12-20T05:15:19.057Z,0
2018-12-20T05:16:19.058Z,0
2018-12-20T05:17:18.819Z,0
2018-12-20T05:18:18.950Z,0
2018-12-20T05:19:19.170Z,0
2018-12-20T05:20:18.914Z,0
2018-12-20T05:21:18.790Z,0
2018-12-20T05:22:18.689Z,0
2018-12-20T05:23:18.910Z,0
2018-12-20T05:24:18.388Z,0
2018-12-20T05:25:18.516Z,0
2018-12-20T05:26:18.746Z,0
2018-12-20T05:27:18.949Z,0
2018-12-20T05:28:18.793Z,0
2018-12-20T05:29:18.882Z,0
2018-12-20T05:30:18.908Z,0
2018-12-20T05:31:18.587Z,0
2018-12-20T05:32:18.732Z,0
2018-12-20T05:33:18.637Z,0
2018-12-20T05:34:18.578Z,0
2018-12-20T05:35:18.753Z,0
2018-12-20T05:36:18.635Z,0
2018-12-20T05:37:18.496Z,0
2018-12-20T05:38:18.556Z,0
2018-12-20T05:39:18.450Z,0
2018-12-20T05:40:18.405Z,0
2018-12-20T05:41:18.191Z,0
2018-12-20T05:42:18.779Z,0
2018-12-20T05:43:18.787Z,0
2018-12-20T05:44:18.428Z,0
2018-12-20T05:45:18.710Z,0
2018-12-20T05:46:18.469Z,0
2018-12-20T05:47:18.402Z,0
2018-12-20T05:48:18.320Z,0
2018-12-20T05:49:18.388Z,0
2018-12-20T05:50:17.807Z,0
2018-12-20T05:51:18.036Z,0
2018-12-20T05:52:18.025Z,0
2018-12-20T05:53:18.448Z,0
2018-12-20T05:54:18.258Z,0
2018-12-20T05:55:18.731Z,0
2018-12-20T05:56:18.092Z,0
2018-12-20T05:57:18.172Z,0
2018-12-20T05:58:17.952Z,0
2018-12-20T05:59:18.426Z,0
2018-12-20T06:00:18.287Z,0
2018-12-20T06:01:18.250Z,0
2018-12-20T06:02:18.040Z,0
2018-12-20T06:03:18.331Z,0
2018-12-20T06:04:18.789Z,0
2018-12-20T06:05:18.008Z,0
2018-12-20T06:06:18.183Z,0
2018-12-20T06:07:18.200Z,0
2018-12-20T06:08:17.929Z,0
2018-12-20T06:09:18.338Z,0
2018-12-20T06:10:17.835Z,0
2018-12-20T06:11:17.890Z,0
2018-12-20T06:12:18.136Z,0
2018-12-20T06:13:18.105Z,0
2018-12-20T06:14:17.861Z,0
2018-12-20T06:15:17.618Z,0
2018-12-20T06:16:22.941Z,0
2018-12-20T06:17:18.127Z,0
2018-12-20T06:18:17.681Z,0
2018-12-20T06:19:17.939Z,0
2018-12-20T06:20:18.015Z,0
2018-12-20T06:21:17.801Z,0
2018-12-20T06:22:17.719Z,0
2018-12-20T06:23:17.196Z,0
2018-12-20T06:24:17.430Z,0
2018-12-20T06:25:17.420Z,0
2018-12-20T06:26:17.197Z,0
2018-12-20T06:27:17.368Z,0
2018-12-20T06:28:17.359Z,0
2018-12-20T06:29:17.336Z,0
2018-12-20T06:30:17.319Z,0
2018-12-20T06:31:17.302Z,0
2018-12-20T06:32:17.036Z,0
2018-12-20T06:33:17.271Z,0
2018-12-20T06:34:17.286Z,0
2018-12-20T06:35:17.229Z,0
2018-12-20T06:36:17.210Z,0
2018-12-20T06:37:16.941Z,0
2018-12-20T06:38:17.174Z,0
2018-12-20T06:39:17.158Z,0
2018-12-20T06:40:18.882Z,0
2018-12-20T06:41:17.116Z,0
2018-12-20T06:42:17.106Z,0
2018-12-20T06:43:17.099Z,0
2018-12-20T06:44:17.069Z,0
2018-12-20T06:45:16.801Z,0
2018-12-20T06:46:23.422Z,0
2018-12-20T06:47:16.857Z,0
2018-12-20T06:48:16.989Z,0
2018-12-20T06:49:16.724Z,0
2018-12-20T06:50:16.710Z,0
2018-12-20T06:51:16.937Z,0
2018-12-20T06:52:16.755Z,0
2018-12-20T06:53:16.904Z,0
2018-12-20T06:54:16.875Z,0
2018-12-20T06:55:16.615Z,0
2018-12-20T06:56:16.591Z,0
2018-12-20T06:57:16.825Z,0
2018-12-20T06:58:16.803Z,0
2018-12-20T06:59:17.160Z,0
2018-12-20T07:00:16.792Z,0
2018-12-20T07:01:16.508Z,0
2018-12-20T07:02:16.240Z,0
2018-12-20T07:03:16.713Z,0
2018-12-20T07:04:16.203Z,0
2018-12-20T07:05:16.432Z,0
2018-12-20T07:06:16.669Z,0
2018-12-20T07:07:16.642Z,0
2018-12-20T07:08:16.630Z,0
2018-12-20T07:09:16.607Z,0
2018-12-20T07:10:16.472Z,0
2018-12-20T07:11:16.575Z,0
2018-12-20T07:12:16.554Z,0
2018-12-20T07:13:16.289Z,0
2018-12-20T07:14:16.278Z,5
2018-12-20T07:15:16.317Z,5
2018-12-20T07:16:16.253Z,5
2018-12-20T07:17:16.460Z,5
2018-12-20T07:18:16.452Z,5
2018-12-20T07:19:16.513Z,5
2018-12-20T07:20:16.414Z,5
2018-12-20T07:21:16.394Z,5
2018-12-20T07:22:16.461Z,5
2018-12-20T07:23:16.349Z,10
2018-12-20T07:24:16.332Z,10
2018-12-20T07:25:16.320Z,10
2018-12-20T07:26:16.297Z,10
2018-12-20T07:27:16.035Z,10
2018-12-20T07:28:16.315Z,10
2018-12-20T07:29:16.245Z,10
2018-12-20T07:30:16.271Z,10
2018-12-20T07:31:16.218Z,10
2018-12-20T07:32:16.188Z,10
2018-12-20T07:33:15.926Z,10
2018-12-20T07:34:16.309Z,10
2018-12-20T07:35:16.145Z,10
2018-12-20T07:36:16.122Z,10
2018-12-20T07:37:16.095Z,10
2018-12-20T07:38:16.088Z,10
2018-12-20T07:39:16.065Z,15
2018-12-20T07:40:16.043Z,15
2018-12-20T07:41:16.032Z,15
2018-12-20T07:42:16.007Z,20
2018-12-20T07:43:16.013Z,20
2018-12-20T07:44:15.976Z,20
2018-12-20T07:45:15.963Z,25
2018-12-20T07:46:16.445Z,25
2018-12-20T07:47:15.917Z,25
2018-12-20T07:48:15.900Z,25
2018-12-20T07:49:15.886Z,25
2018-12-20T07:50:15.866Z,25
2018-12-20T07:51:15.887Z,30
2018-12-20T07:52:15.833Z,30
2018-12-20T07:53:15.562Z,35
2018-12-20T07:54:15.545Z,35
2018-12-20T07:55:15.775Z,35
2018-12-20T07:56:15.502Z,35
2018-12-20T07:57:15.734Z,35
2018-12-20T07:58:15.471Z,40
2018-12-20T07:59:23.334Z,40
2018-12-20T08:00:15.687Z,40
2018-12-20T08:01:15.665Z,40
2018-12-20T08:02:15.399Z,45
2018-12-20T08:03:15.636Z,45
2018-12-20T08:04:15.633Z,45
2018-12-20T08:05:15.616Z,45
2018-12-20T08:06:15.580Z,45
2018-12-20T08:07:15.564Z,40
2018-12-20T08:08:15.538Z,40
2018-12-20T08:09:15.524Z,40
2018-12-20T08:10:17.241Z,40
2018-12-20T08:11:15.244Z,35
2018-12-20T08:12:15.475Z,35
2018-12-20T08:13:15.229Z,35
2018-12-20T08:14:15.431Z,30
2018-12-20T08:15:15.414Z,25
2018-12-20T08:16:15.152Z,30
2018-12-20T08:17:15.380Z,30
2018-12-20T08:18:15.170Z,30
2018-12-20T08:19:15.106Z,35
2018-12-20T08:20:15.354Z,40
2018-12-20T08:21:15.076Z,45
2018-12-20T08:22:15.296Z,45
2018-12-20T08:23:15.276Z,50
2018-12-20T08:24:15.254Z,55
2018-12-20T08:25:15.249Z,60
2018-12-20T08:26:15.223Z,60
2018-12-20T08:27:15.200Z,65
2018-12-20T08:28:15.204Z,65
2018-12-20T08:29:15.161Z,65
2018-12-20T08:30:15.173Z,65
2018-12-20T08:31:15.136Z,65
2018-12-20T08:32:15.116Z,65
2018-12-20T08:33:14.708Z,65
2018-12-20T08:34:15.085Z,65
2018-12-20T08:35:15.064Z,65
2018-12-20T08:36:15.054Z,70
2018-12-20T08:37:15.036Z,70
2018-12-20T08:38:14.753Z,70
2018-12-20T08:39:14.755Z,70
2018-12-20T08:40:14.785Z,70
2018-12-20T08:41:16.320Z,70
2018-12-20T08:42:14.947Z,65
2018-12-20T08:43:14.920Z,70
2018-12-20T08:44:14.905Z,70
2018-12-20T08:45:14.896Z,70
2018-12-20T08:46:14.378Z,70
2018-12-20T08:47:14.871Z,70
2018-12-20T08:48:14.592Z,75
2018-12-20T08:49:14.847Z,75
2018-12-20T08:50:14.800Z,80
2018-12-20T08:51:14.782Z,80
2018-12-20T08:52:14.861Z,75
2018-12-20T08:53:14.763Z,75
2018-12-20T08:54:14.728Z,75
2018-12-20T08:55:14.475Z,80
2018-12-20T08:56:14.474Z,80
2018-12-20T08:57:14.684Z,85
2018-12-20T08:58:14.668Z,85
2018-12-20T08:59:14.660Z,85
2018-12-20T09:00:14.628Z,90
2018-12-20T09:01:14.610Z,90
2018-12-20T09:02:14.615Z,90
2018-12-20T09:03:14.328Z,90
2018-12-20T09:04:14.553Z,95
2018-12-20T09:05:14.298Z,100
2018-12-20T09:06:14.520Z,100
2018-12-20T09:07:14.512Z,105
2018-12-20T09:08:14.488Z,115
2018-12-20T09:09:14.473Z,120
2018-12-20T09:10:14.211Z,120
2018-12-20T09:11:14.447Z,120
2018-12-20T09:12:14.420Z,115
2018-12-20T09:13:19.106Z,120
2018-12-20T09:14:16.214Z,120
2018-12-20T09:15:14.367Z,120
2018-12-20T09:16:14.108Z,120
2018-12-20T09:17:14.332Z,125
2018-12-20T09:18:14.081Z,120
2018-12-20T09:19:14.056Z,115
2018-12-20T09:20:13.951Z,110
2018-12-20T09:21:14.021Z,115
2018-12-20T09:22:14.251Z,115
2018-12-20T09:23:14.246Z,120
2018-12-20T09:24:13.977Z,125
2018-12-20T09:25:14.204Z,110
2018-12-20T09:26:13.938Z,115
2018-12-20T09:27:14.167Z,110
2018-12-20T09:28:14.151Z,110
2018-12-20T09:29:14.132Z,105
2018-12-20T09:30:14.176Z,105
2018-12-20T09:31:14.105Z,100
2018-12-20T09:32:14.084Z,95
2018-12-20T09:33:13.826Z,95
2018-12-20T09:34:14.055Z,90
2018-12-20T09:35:14.034Z,90
2018-12-20T09:36:14.014Z,90
2018-12-20T09:37:13.763Z,95
2018-12-20T09:38:13.996Z,100
2018-12-20T09:39:14.013Z,100
2018-12-20T09:40:13.708Z,110
2018-12-20T09:41:13.830Z,110
2018-12-20T09:42:13.927Z,105
2018-12-20T09:43:13.911Z,115
2018-12-20T09:44:13.640Z,115
2018-12-20T09:45:13.885Z,115
2018-12-20T09:46:13.858Z,110
2018-12-20T09:47:21.423Z,120
2018-12-20T09:48:13.577Z,110
2018-12-20T09:49:13.816Z,105
2018-12-20T09:50:13.790Z,125
2018-12-20T09:51:13.779Z,130
2018-12-20T09:52:13.516Z,110
2018-12-20T09:53:13.751Z,115
2018-12-20T09:54:13.484Z,130
2018-12-20T09:55:13.731Z,115
2018-12-20T09:56:13.694Z,105
2018-12-20T09:57:13.467Z,100
2018-12-20T09:58:13.413Z,95
2018-12-20T09:59:13.650Z,95
2018-12-20T10:00:13.382Z,100
2018-12-20T10:01:13.620Z,115
2018-12-20T10:02:13.593Z,125
2018-12-20T10:03:13.583Z,120
2018-12-20T10:04:13.571Z,160
2018-12-20T10:05:13.553Z,175
2018-12-20T10:06:13.536Z,185
2018-12-20T10:07:13.487Z,140
2018-12-20T10:08:13.622Z,120
2018-12-20T10:09:13.230Z,125
2018-12-20T10:10:13.470Z,145
2018-12-20T10:11:13.448Z,150
2018-12-20T10:12:13.186Z,140
2018-12-20T10:13:13.420Z,150
2018-12-20T10:14:13.405Z,140
2018-12-20T10:15:13.384Z,125
2018-12-20T10:16:13.378Z,140
2018-12-20T10:17:19.794Z,155
2018-12-20T10:18:13.336Z,115
2018-12-20T10:19:13.319Z,100
2018-12-20T10:20:13.306Z,100
2018-12-20T10:21:13.391Z,105
2018-12-20T10:22:13.272Z,115
2018-12-20T10:23:12.763Z,110
2018-12-20T10:24:13.244Z,125
2018-12-20T10:25:13.228Z,120
2018-12-20T10:26:13.210Z,150
2018-12-20T10:27:13.197Z,165
2018-12-20T10:28:14.160Z,150
2018-12-20T10:29:13.177Z,180
2018-12-20T10:30:13.149Z,155
2018-12-20T10:31:13.145Z,145
2018-12-20T10:32:13.111Z,185
2018-12-20T10:33:13.091Z,180
2018-12-20T10:34:12.846Z,160
2018-12-20T10:35:13.057Z,190
2018-12-20T10:36:13.045Z,150
2018-12-20T10:37:13.041Z,185
2018-12-20T10:38:12.768Z,205
2018-12-20T10:39:13.005Z,190
2018-12-20T10:40:12.990Z,200
2018-12-20T10:41:12.989Z,175
2018-12-20T10:42:12.957Z,165
2018-12-20T10:43:12.941Z,150
2018-12-20T10:44:12.934Z,150
2018-12-20T10:45:12.917Z,145
2018-12-20T10:46:12.894Z,150
2018-12-20T10:47:12.886Z,180
2018-12-20T10:48:12.879Z,195
2018-12-20T10:49:12.844Z,185
2018-12-20T10:50:12.585Z,175
2018-12-20T10:51:12.820Z,155
2018-12-20T10:52:12.803Z,140
2018-12-20T10:53:12.804Z,150
2018-12-20T10:54:12.525Z,145
2018-12-20T10:55:12.752Z,145
2018-12-20T10:56:12.503Z,150
2018-12-20T10:57:12.726Z,155
2018-12-20T10:58:12.456Z,150
2018-12-20T10:59:12.695Z,150
2018-12-20T11:00:11.926Z,150
2018-12-20T11:01:12.646Z,160
2018-12-20T11:02:12.639Z,170
2018-12-20T11:03:12.380Z,160
2018-12-20T11:04:12.841Z,150
2018-12-20T11:05:12.595Z,150
2018-12-20T11:06:12.582Z,145
2018-12-20T11:07:12.314Z,145
2018-12-20T11:08:12.054Z,150
2018-12-20T11:09:12.535Z,140
2018-12-20T11:10:12.520Z,140
2018-12-20T11:11:12.273Z,145
2018-12-20T11:12:12.231Z,180
2018-12-20T11:13:12.468Z,170
2018-12-20T11:14:12.443Z,175
2018-12-20T11:15:12.187Z,190
2018-12-20T11:16:12.422Z,180
2018-12-20T11:17:12.418Z,155
2018-12-20T11:18:12.152Z,160
2018-12-20T11:19:12.380Z,130
2018-12-20T11:20:12.357Z,150
2018-12-20T11:21:12.345Z,160
2018-12-20T11:22:12.326Z,165
2018-12-20T11:23:12.311Z,185
2018-12-20T11:24:12.290Z,160
2018-12-20T11:25:12.276Z,175
2018-12-20T11:26:12.375Z,145
2018-12-20T11:27:11.999Z,110
2018-12-20T11:28:12.245Z,105
2018-12-20T11:29:12.050Z,105
2018-12-20T11:30:11.956Z,110
2018-12-20T11:31:13.463Z,105
2018-12-20T11:32:12.174Z,115
2018-12-20T11:33:11.908Z,110
2018-12-20T11:34:11.890Z,110
2018-12-20T11:35:12.118Z,130
2018-12-20T11:36:11.877Z,115
2018-12-20T11:37:12.095Z,105
2018-12-20T11:38:12.077Z,100
2018-12-20T11:39:18.051Z,100
2018-12-20T11:40:12.049Z,115
2018-12-20T11:41:12.032Z,120
2018-12-20T11:42:11.763Z,130
2018-12-20T11:43:11.747Z,120
2018-12-20T11:44:11.725Z,115
2018-12-20T11:45:11.464Z,120
2018-12-20T11:46:11.950Z,120
2018-12-20T11:47:11.935Z,130
2018-12-20T11:48:12.037Z,140
2018-12-20T11:49:11.897Z,150
2018-12-20T11:50:11.637Z,150
2018-12-20T11:51:11.872Z,155
2018-12-20T11:52:11.845Z,145
2018-12-20T11:53:11.837Z,145
2018-12-20T11:54:11.570Z,145
2018-12-20T11:55:11.804Z,140
2018-12-20T11:56:11.550Z,135
2018-12-20T11:57:11.775Z,135
2018-12-20T11:58:11.758Z,130
2018-12-20T11:59:11.754Z,130
2018-12-20T12:00:11.726Z,130
2018-12-20T12:01:11.713Z,130
2018-12-20T12:02:11.694Z,130
2018-12-20T12:03:11.688Z,135
2018-12-20T12:04:11.657Z,135
2018-12-20T12:05:11.648Z,130
2018-12-20T12:06:11.624Z,135
2018-12-20T12:07:11.381Z,140
2018-12-20T12:08:11.596Z,140
2018-12-20T12:09:11.586Z,140
2018-12-20T12:10:12.630Z,135
2018-12-20T12:11:11.555Z,135
2018-12-20T12:12:11.536Z,120
2018-12-20T12:13:11.514Z,110
2018-12-20T12:14:11.262Z,100
2018-12-20T12:15:11.242Z,100
2018-12-20T12:16:11.470Z,85
2018-12-20T12:17:11.207Z,85
2018-12-20T12:18:11.445Z,85
2018-12-20T12:19:11.165Z,80
2018-12-20T12:20:11.410Z,85
2018-12-20T12:21:11.137Z,75
2018-12-20T12:22:11.129Z,75
2018-12-20T12:23:11.359Z,85
2018-12-20T12:24:11.344Z,80
2018-12-20T12:25:11.329Z,75
2018-12-20T12:26:11.313Z,85
2018-12-20T12:27:10.797Z,80
2018-12-20T12:28:11.031Z,75
2018-12-20T12:29:11.021Z,70
2018-12-20T12:30:10.999Z,70
2018-12-20T12:31:11.233Z,60
2018-12-20T12:32:11.218Z,60
2018-12-20T12:33:11.191Z,55
2018-12-20T12:34:11.175Z,65
2018-12-20T12:35:11.170Z,65
2018-12-20T12:36:10.900Z,65
2018-12-20T12:37:11.269Z,65
2018-12-20T12:38:11.118Z,70
2018-12-20T12:39:10.856Z,65
2018-12-20T12:40:11.080Z,55
2018-12-20T12:41:11.065Z,55
2018-12-20T12:42:11.055Z,55
2018-12-20T12:43:10.788Z,50
2018-12-20T12:44:11.953Z,50
2018-12-20T12:45:10.998Z,55
2018-12-20T12:46:10.747Z,45
2018-12-20T12:47:10.964Z,45
2018-12-20T12:48:13.338Z,45
2018-12-20T12:49:10.938Z,40
2018-12-20T12:50:10.924Z,45
2018-12-20T12:51:10.906Z,40
2018-12-20T12:52:10.892Z,40
2018-12-20T12:53:10.623Z,40
2018-12-20T12:54:10.619Z,50
2018-12-20T12:55:10.838Z,50
2018-12-20T12:56:10.824Z,55
2018-12-20T12:57:10.560Z,50
2018-12-20T12:58:14.315Z,50
2018-12-20T12:59:10.772Z,55
2018-12-20T13:00:10.528Z,60
2018-12-20T13:01:10.743Z,50
2018-12-20T13:02:10.480Z,40
2018-12-20T13:03:10.709Z,35
2018-12-20T13:04:10.791Z,35
2018-12-20T13:05:10.436Z,35
2018-12-20T13:06:10.658Z,50
2018-12-20T13:07:10.158Z,45
2018-12-20T13:08:10.388Z,40
2018-12-20T13:09:10.115Z,40
2018-12-20T13:10:10.372Z,45
2018-12-20T13:11:10.358Z,50
2018-12-20T13:12:10.565Z,50
2018-12-20T13:13:10.573Z,45
2018-12-20T13:14:10.534Z,45
2018-12-20T13:15:10.260Z,45
2018-12-20T13:16:10.246Z,55
2018-12-20T13:17:10.479Z,75
2018-12-20T13:18:18.533Z,65
2018-12-20T13:19:10.445Z,45
2018-12-20T13:20:10.430Z,35
2018-12-20T13:21:10.170Z,30
2018-12-20T13:22:10.394Z,30
2018-12-20T13:23:10.392Z,35
2018-12-20T13:24:10.122Z,50
2018-12-20T13:25:10.368Z,50
2018-12-20T13:26:10.338Z,50
2018-12-20T13:27:10.321Z,55
2018-12-20T13:28:10.301Z,50
2018-12-20T13:29:10.288Z,55
2018-12-20T13:30:11.759Z,55
2018-12-20T13:31:10.017Z,50
2018-12-20T13:32:09.986Z,55
2018-12-20T13:33:10.221Z,50
2018-12-20T13:34:10.208Z,55
2018-12-20T13:35:10.353Z,45
2018-12-20T13:36:10.182Z,50
2018-12-20T13:37:18.187Z,50
2018-12-20T13:38:10.138Z,50
2018-12-20T13:39:10.126Z,45
2018-12-20T13:40:10.152Z,45
2018-12-20T13:41:10.100Z,45
2018-12-20T13:42:11.027Z,45
2018-12-20T13:43:10.058Z,45
2018-12-20T13:44:09.798Z,50
2018-12-20T13:45:09.787Z,40
2018-12-20T13:46:10.005Z,40
2018-12-20T13:47:09.747Z,35
2018-12-20T13:48:09.979Z,35
2018-12-20T13:49:09.958Z,35
2018-12-20T13:50:09.946Z,35
2018-12-20T13:51:09.926Z,45
2018-12-20T13:52:09.169Z,50
2018-12-20T13:53:09.893Z,40
2018-12-20T13:54:09.636Z,45
2018-12-20T13:55:09.606Z,45
2018-12-20T13:56:09.604Z,40
2018-12-20T13:57:09.836Z,35
2018-12-20T13:58:09.809Z,35
2018-12-20T13:59:12.822Z,35
2018-12-20T14:00:09.789Z,45
2018-12-20T14:01:09.859Z,35
2018-12-20T14:02:09.509Z,40
2018-12-20T14:03:09.574Z,40
2018-12-20T14:04:09.730Z,45
2018-12-20T14:05:09.711Z,40
2018-12-20T14:06:09.681Z,35
2018-12-20T14:07:09.179Z,30
2018-12-20T14:08:09.399Z,25
2018-12-20T14:09:09.640Z,30
2018-12-20T14:10:09.627Z,20
2018-12-20T14:11:09.609Z,25
2018-12-20T14:12:09.586Z,25
2018-12-20T14:13:09.570Z,25
2018-12-20T14:14:09.298Z,20
2018-12-20T14:15:09.539Z,20
2018-12-20T14:16:10.264Z,20
2018-12-20T14:17:09.505Z,20
2018-12-20T14:18:09.510Z,20
2018-12-20T14:19:08.976Z,15
2018-12-20T14:20:09.214Z,15
2018-12-20T14:21:09.432Z,15
2018-12-20T14:22:09.420Z,15
2018-12-20T14:23:09.408Z,15
2018-12-20T14:24:08.645Z,15